Time;durP1;ratioP1;P1;durP2;ratioP2;P2;SDS_P1;SDS_P2;PMS_P1;PMS_P2;Temp;Humidity;BMP_temperature;BMP_pressure;BME280_temperature;BME280_humidity;BME280_pressure;Samples;Min_cycle;Max_cycle;Signal;HPM_P1;HPM_P2
2022/10/25 00:01:19;;;;;;;15.18;8.75;;;12.30;99.90;;;;;;5056991;28;20052;-83
2022/10/25 00:03:45;;;;;;;10.27;6.90;;;12.20;99.90;;;;;;5056691;28;20521;-81
2022/10/25 00:06:12;;;;;;;15.60;9.05;;;12.20;99.90;;;;;;5058417;28;20586;-84
2022/10/25 00:08:38;;;;;;;23.40;8.50;;;12.20;99.90;;;;;;5057042;28;20475;-81
2022/10/25 00:11:05;;;;;;;10.70;7.35;;;12.20;99.90;;;;;;5058297;28;20052;-80
2022/10/25 00:13:31;;;;;;;14.27;9.90;;;12.20;99.90;;;;;;5051862;28;20048;-82
2022/10/25 00:15:57;;;;;;;14.18;8.55;;;12.20;99.90;;;;;;5058491;28;20044;-83
2022/10/25 00:18:22;;;;;;;12.40;8.45;;;12.20;99.90;;;;;;5050975;28;20053;-83
2022/10/25 00:20:48;;;;;;;18.17;8.95;;;12.10;99.90;;;;;;5057764;28;20454;-83
2022/10/25 00:23:14;;;;;;;14.35;9.68;;;12.20;99.90;;;;;;5050438;28;20087;-82
2022/10/25 00:25:40;;;;;;;14.40;8.85;;;12.20;99.90;;;;;;5057471;28;20052;-84
2022/10/25 00:28:06;;;;;;;16.27;10.30;;;12.20;99.90;;;;;;5052353;28;20040;-83
2022/10/25 00:30:31;;;;;;;16.70;9.93;;;12.20;99.90;;;;;;5062539;28;20052;-82
2022/10/25 00:32:57;;;;;;;17.48;10.45;;;12.20;99.90;;;;;;5058173;28;20078;-81
2022/10/25 00:35:24;;;;;;;13.35;9.05;;;12.20;99.90;;;;;;5057365;28;20059;-83
2022/10/25 00:37:50;;;;;;;19.60;11.15;;;12.20;99.90;;;;;;5060684;28;20052;-83
2022/10/25 00:40:17;;;;;;;20.27;11.13;;;12.20;99.90;;;;;;5055917;28;20048;-83
2022/10/25 00:42:42;;;;;;;17.42;9.73;;;12.20;99.90;;;;;;5061799;28;20044;-84
2022/10/25 00:45:27;;;;;;;19.40;11.45;;;12.20;99.90;;;;;;5060290;28;20059;-83
2022/10/25 00:48:19;;;;;;;16.60;10.48;;;11.10;99.90;;;;;;5053850;28;20052;-84
2022/10/25 00:50:49;;;;;;;20.33;11.57;;;12.30;99.90;;;;;;5052399;28;20171;-84
2022/10/25 00:53:24;;;;;;;19.88;11.57;;;12.40;99.90;;;;;;5053393;28;20135;-83
2022/10/25 00:56:00;;;;;;;17.60;12.30;;;12.40;99.90;;;;;;5053078;28;20060;-81
2022/10/25 00:58:27;;;;;;;20.58;13.20;;;12.50;99.90;;;;;;5050676;28;20048;-85
2022/10/25 01:00:53;;;;;;;23.08;13.45;;;12.60;99.90;;;;;;5019232;28;20103;-83
2022/10/25 01:03:23;;;;;;;18.48;12.07;;;12.60;99.90;;;;;;5059953;28;20163;-83
2022/10/25 01:05:50;;;;;;;19.00;12.05;;;12.70;99.90;;;;;;5050670;28;20155;-83
2022/10/25 01:08:18;;;;;;;23.63;12.52;;;12.70;99.90;;;;;;5056501;28;20490;-83
2022/10/25 01:10:44;;;;;;;26.40;13.00;;;12.80;99.90;;;;;;5055072;28;20135;-85
2022/10/25 01:13:12;;;;;;;17.95;11.93;;;12.80;99.90;;;;;;5059851;28;20784;-84
2022/10/25 01:16:13;;;;;;;19.92;13.70;;;12.80;99.90;;;;;;5042639;28;20044;-82
2022/10/25 01:18:43;;;;;;;17.58;12.10;;;12.80;99.90;;;;;;5054826;28;20048;-84
2022/10/25 01:21:35;;;;;;;17.90;13.40;;;12.90;99.90;;;;;;5060610;28;20051;-83
2022/10/25 01:24:28;;;;;;;16.67;10.50;;;12.90;99.90;;;;;;5056323;28;20083;-85
2022/10/25 01:27:18;;;;;;;21.20;12.00;;;12.90;99.90;;;;;;5062307;28;20482;-84
2022/10/25 01:30:04;;;;;;;19.02;12.10;;;12.90;99.90;;;;;;5050993;28;20067;-84
2022/10/25 01:32:40;;;;;;;15.57;10.70;;;12.90;99.90;;;;;;5048744;28;20052;-84
2022/10/25 01:35:11;;;;;;;17.92;11.48;;;12.90;99.90;;;;;;5052730;28;20044;-83
2022/10/25 01:38:04;;;;;;;20.50;11.32;;;13.00;99.90;;;;;;5058944;28;20051;-81
2022/10/25 01:40:38;;;;;;;18.35;10.55;;;13.00;99.90;;;;;;5053106;28;20071;-85
2022/10/25 01:43:15;;;;;;;16.42;10.88;;;13.00;99.90;;;;;;5061210;28;20053;-82
2022/10/25 01:46:22;;;;;;;17.40;9.73;;;13.00;99.90;;;;;;5060505;28;20045;-83
2022/10/25 01:49:10;;;;;;;17.48;12.40;;;13.00;99.90;;;;;;5032189;28;20056;-84
2022/10/25 01:51:37;;;;;;;19.63;11.88;;;13.00;99.90;;;;;;5058084;28;20048;-84
2022/10/25 01:54:15;;;;;;;16.92;10.20;;;13.00;99.90;;;;;;5059638;28;20585;-82
2022/10/25 01:57:06;;;;;;;16.52;10.48;;;13.10;99.90;;;;;;5060785;28;20056;-82
2022/10/25 01:59:40;;;;;;;16.65;10.25;;;13.10;99.90;;;;;;5052467;28;20200;-82
2022/10/25 02:02:25;;;;;;;15.27;10.50;;;13.10;99.90;;;;;;5060859;28;20704;-81
2022/10/25 02:05:08;;;;;;;19.45;9.52;;;13.10;99.90;;;;;;5059738;28;20051;-81
2022/10/25 02:07:40;;;;;;;14.45;9.75;;;13.20;99.90;;;;;;5046792;28;20114;-80
2022/10/25 02:10:18;;;;;;;14.55;10.18;;;13.10;99.90;;;;;;5058987;28;20156;-79
2022/10/25 02:13:38;;;;;;;17.80;11.02;;;13.20;99.90;;;;;;5054855;28;20049;-77
2022/10/25 02:16:21;;;;;;;16.17;9.77;;;13.20;99.90;;;;;;5016597;28;20141;-76
2022/10/25 02:18:51;;;;;;;14.60;10.35;;;13.30;99.90;;;;;;5054096;28;20044;-76
2022/10/25 02:21:17;;;;;;;16.15;10.02;;;13.20;99.90;;;;;;5059105;28;20045;-76
2022/10/25 02:23:44;;;;;;;16.02;10.80;;;13.20;99.90;;;;;;5059433;28;20377;-76
2022/10/25 02:26:11;;;;;;;13.65;9.65;;;13.10;99.90;;;;;;5059432;28;20127;-76
2022/10/25 02:28:39;;;;;;;15.60;10.70;;;13.10;99.90;;;;;;5058068;28;20063;-76
2022/10/25 02:31:14;;;;;;;18.20;10.30;;;13.10;99.90;;;;;;5054663;28;20056;-76
2022/10/25 02:33:42;;;;;;;19.80;11.73;;;13.10;99.90;;;;;;5057308;28;20051;-75
2022/10/25 02:36:18;;;;;;;19.85;11.18;;;13.10;99.90;;;;;;5060199;28;20048;-75
2022/10/25 02:38:45;;;;;;;15.77;10.15;;;13.10;99.90;;;;;;5059440;28;20056;-76
2022/10/25 02:41:11;;;;;;;20.58;10.80;;;13.10;99.90;;;;;;5059363;28;20059;-76
2022/10/25 02:43:37;;;;;;;20.10;11.40;;;13.10;99.90;;;;;;5058426;28;20066;-76
2022/10/25 02:46:10;;;;;;;14.18;10.57;;;13.10;99.90;;;;;;5060105;28;20156;-77
2022/10/25 02:48:37;;;;;;;19.42;11.80;;;13.10;99.90;;;;;;5055828;28;20094;-77
2022/10/25 02:51:04;;;;;;;16.90;11.05;;;13.10;99.90;;;;;;5042977;28;20084;-76
2022/10/25 02:53:31;;;;;;;14.77;11.27;;;13.10;99.90;;;;;;5047396;28;20060;-77
2022/10/25 02:56:09;;;;;;;16.67;10.15;;;13.10;99.90;;;;;;5058195;28;20090;-77
2022/10/25 02:58:38;;;;;;;14.10;10.32;;;13.10;99.90;;;;;;5054107;28;20486;-77
2022/10/25 03:01:05;;;;;;;14.88;10.18;;;13.10;99.90;;;;;;5059444;28;20814;-78
2022/10/25 03:03:31;;;;;;;16.85;10.55;;;13.10;99.90;;;;;;5059063;28;20048;-77
2022/10/25 03:05:57;;;;;;;18.20;11.70;;;13.10;99.90;;;;;;5059490;28;20616;-77
2022/10/25 03:08:24;;;;;;;18.45;11.10;;;13.10;99.90;;;;;;5058579;28;20044;-75
2022/10/25 03:10:50;;;;;;;20.90;11.50;;;13.20;99.90;;;;;;5058037;28;20041;-75
2022/10/25 03:13:16;;;;;;;13.77;9.27;;;13.10;99.90;;;;;;5059200;28;20048;-75
2022/10/25 03:15:43;;;;;;;16.75;9.60;;;13.10;99.90;;;;;;5058672;28;20496;-76
2022/10/25 03:18:09;;;;;;;18.52;9.63;;;13.20;99.90;;;;;;5059558;28;20070;-75
2022/10/25 03:20:35;;;;;;;18.10;10.77;;;13.20;99.90;;;;;;5057873;28;20053;-76
2022/10/25 03:23:01;;;;;;;11.38;8.55;;;13.20;99.90;;;;;;5051854;28;20124;-76
2022/10/25 03:25:26;;;;;;;13.18;10.13;;;13.10;99.90;;;;;;5057473;28;20048;-77
2022/10/25 03:27:52;;;;;;;16.40;9.10;;;13.10;99.90;;;;;;5058804;28;20676;-77
2022/10/25 03:30:18;;;;;;;13.90;8.25;;;13.10;99.90;;;;;;5058187;28;20048;-77
2022/10/25 03:32:43;;;;;;;13.30;7.88;;;13.10;99.90;;;;;;5057191;28;20576;-77
2022/10/25 03:35:09;;;;;;;13.68;9.23;;;13.00;99.90;;;;;;5057598;28;20048;-79
2022/10/25 03:37:35;;;;;;;14.40;10.05;;;13.00;99.90;;;;;;5057978;28;20470;-77
2022/10/25 03:40:00;;;;;;;19.08;10.80;;;13.00;99.90;;;;;;5058971;28;20500;-77
2022/10/25 03:42:26;;;;;;;18.15;10.50;;;12.90;99.90;;;;;;5057870;28;20044;-78
2022/10/25 03:44:52;;;;;;;15.98;10.23;;;12.90;99.90;;;;;;5059527;28;20783;-78
2022/10/25 03:47:18;;;;;;;19.02;10.45;;;12.90;99.90;;;;;;5058264;28;20049;-78
2022/10/25 03:49:44;;;;;;;19.10;10.05;;;13.00;99.90;;;;;;5059174;28;20043;-78
2022/10/25 03:52:10;;;;;;;16.80;11.63;;;12.90;99.90;;;;;;5056178;28;20048;-77
2022/10/25 03:54:36;;;;;;;15.30;10.77;;;12.90;99.90;;;;;;5058191;28;20072;-77
2022/10/25 03:57:03;;;;;;;14.32;10.63;;;12.90;99.90;;;;;;5058262;28;20056;-78
2022/10/25 03:59:29;;;;;;;17.48;11.73;;;12.90;99.90;;;;;;5055741;28;20655;-78
2022/10/25 04:01:54;;;;;;;17.13;10.70;;;12.90;99.90;;;;;;5062196;28;20076;-78
2022/10/25 04:04:20;;;;;;;16.50;11.20;;;12.90;99.90;;;;;;5061801;28;20059;-78
2022/10/25 04:06:46;;;;;;;13.90;10.02;;;13.00;99.90;;;;;;5062455;28;20060;-78
2022/10/25 04:09:11;;;;;;;18.80;10.15;;;12.90;99.90;;;;;;5061989;28;20036;-78
2022/10/25 04:11:37;;;;;;;23.08;10.82;;;12.90;99.90;;;;;;5061378;28;20321;-77
2022/10/25 04:14:03;;;;;;;16.73;9.77;;;12.90;99.90;;;;;;5060678;28;20056;-78
2022/10/25 04:16:28;;;;;;;22.23;10.25;;;12.90;99.90;;;;;;5061954;28;20155;-79
2022/10/25 04:18:54;;;;;;;18.08;9.73;;;12.90;99.90;;;;;;5060432;28;20147;-78
2022/10/25 04:21:20;;;;;;;13.90;9.55;;;12.90;99.90;;;;;;5061814;28;20053;-78
2022/10/25 04:23:46;;;;;;;16.42;9.23;;;12.80;99.90;;;;;;5059240;28;20051;-78
2022/10/25 04:26:19;;;;;;;14.07;9.38;;;12.80;99.90;;;;;;5061401;28;20044;-79
2022/10/25 04:28:53;;;;;;;17.35;8.88;;;12.70;99.90;;;;;;5062306;28;20072;-79
2022/10/25 04:31:19;;;;;;;16.77;9.70;;;12.70;99.90;;;;;;5046431;28;20121;-79
2022/10/25 04:33:53;;;;;;;17.77;9.55;;;12.70;99.90;;;;;;5056318;28;20502;-79
2022/10/25 04:36:19;;;;;;;;;;;12.70;99.90;;;;;;5048897;28;20067;-78
2022/10/25 04:38:49;;;;;;;18.48;9.25;;;12.60;99.90;;;;;;5061655;28;19924;-79
2022/10/25 04:41:15;;;;;;;22.02;10.10;;;12.60;99.90;;;;;;5057869;28;20048;-78
2022/10/25 04:43:41;;;;;;;17.60;10.02;;;12.60;99.90;;;;;;5061263;28;20051;-78
2022/10/25 04:46:06;;;;;;;18.83;10.63;;;12.60;99.90;;;;;;5061185;28;20152;-79
2022/10/25 04:48:32;;;;;;;19.77;10.38;;;12.60;99.90;;;;;;5061624;28;20052;-79
2022/10/25 04:50:59;;;;;;;16.80;9.88;;;12.60;99.90;;;;;;5059446;28;20037;-78
2022/10/25 04:53:25;;;;;;;15.32;9.75;;;12.70;99.90;;;;;;5060219;28;20148;-78
2022/10/25 04:56:08;;;;;;;15.88;9.68;;;12.70;99.90;;;;;;5059342;28;20052;-78
2022/10/25 04:58:35;;;;;;;17.85;11.80;;;12.70;99.90;;;;;;5057101;28;20049;-79
2022/10/25 05:01:08;;;;;;;22.20;11.70;;;12.70;99.90;;;;;;5059625;28;20355;-79
2022/10/25 05:03:34;;;;;;;;;;;12.80;99.90;;;;;;5061702;28;20127;-79
2022/10/25 05:06:11;;;;;;;15.55;9.88;;;12.70;99.90;;;;;;5061359;28;19924;-79
2022/10/25 05:08:41;;;;;;;24.10;11.55;;;12.80;99.90;;;;;;5060003;28;20151;-79
2022/10/25 05:11:09;;;;;;;19.08;10.68;;;12.70;99.90;;;;;;5060615;28;20048;-79
2022/10/25 05:13:36;;;;;;;20.08;11.77;;;12.70;99.90;;;;;;5058881;28;20094;-78
2022/10/25 05:16:02;;;;;;;21.27;11.10;;;12.80;99.90;;;;;;5051669;28;20131;-78
2022/10/25 05:18:30;;;;;;;18.98;11.52;;;12.70;99.90;;;;;;5060147;28;20048;-78
2022/10/25 05:21:02;;;;;;;22.65;11.00;;;12.80;99.90;;;;;;5061178;28;20040;-80
2022/10/25 05:23:28;;;;;;;22.40;12.55;;;12.80;99.90;;;;;;5058935;28;20048;-79
2022/10/25 05:26:10;;;;;;;19.45;10.60;;;12.70;99.90;;;;;;5060907;28;20513;-78
2022/10/25 05:28:38;;;;;;;18.35;10.77;;;12.80;99.90;;;;;;5058439;28;20121;-79
2022/10/25 05:31:04;;;;;;;19.60;11.35;;;12.80;99.90;;;;;;5056738;28;20064;-79
2022/10/25 05:33:31;;;;;;;21.13;10.88;;;12.80;99.90;;;;;;5061082;28;20052;-79
2022/10/25 05:35:59;;;;;;;23.15;11.57;;;12.80;99.90;;;;;;5060278;28;20037;-78
2022/10/25 05:38:25;;;;;;;27.30;12.88;;;12.70;99.90;;;;;;5060468;28;20080;-79
2022/10/25 05:40:55;;;;;;;21.05;9.88;;;12.70;99.90;;;;;;5059719;28;20044;-79
2022/10/25 05:43:21;;;;;;;22.75;10.77;;;12.70;99.90;;;;;;5060755;28;20044;-79
2022/10/25 05:45:46;;;;;;;16.67;11.13;;;12.70;99.90;;;;;;5060475;28;20063;-80
2022/10/25 05:48:12;;;;;;;24.75;11.30;;;12.70;99.90;;;;;;5060415;28;20155;-79
2022/10/25 05:50:38;;;;;;;19.08;10.95;;;12.70;99.90;;;;;;5057509;28;20040;-78
2022/10/25 05:53:04;;;;;;;20.65;10.65;;;12.60;99.90;;;;;;5060254;28;20083;-80
2022/10/25 05:55:29;;;;;;;17.58;9.75;;;12.70;99.90;;;;;;5058079;28;20512;-79
2022/10/25 05:57:55;;;;;;;19.88;11.10;;;12.70;99.90;;;;;;5056815;28;20461;-79
2022/10/25 06:00:21;;;;;;;19.38;10.07;;;12.60;99.90;;;;;;5050894;28;20482;-79
2022/10/25 06:02:47;;;;;;;20.00;9.60;;;12.60;99.90;;;;;;5056437;28;20056;-79
2022/10/25 06:05:12;;;;;;;18.63;10.25;;;12.60;99.90;;;;;;5057424;28;20047;-80
2022/10/25 06:07:38;;;;;;;16.65;9.90;;;12.70;99.90;;;;;;5058204;28;20521;-78
2022/10/25 06:10:04;;;;;;;21.33;10.00;;;12.70;99.90;;;;;;5057944;28;20056;-79
2022/10/25 06:12:30;;;;;;;25.90;10.68;;;12.70;99.90;;;;;;5056447;28;20048;-79
2022/10/25 06:14:55;;;;;;;15.68;9.90;;;12.70;99.90;;;;;;5052685;28;20600;-78
2022/10/25 06:17:21;;;;;;;14.82;9.10;;;12.70;99.90;;;;;;5055589;28;20060;-78
2022/10/25 06:19:47;;;;;;;14.02;8.93;;;12.70;99.90;;;;;;5055505;28;20068;-78
2022/10/25 06:22:12;;;;;;;17.98;9.38;;;12.70;99.90;;;;;;5052901;28;20859;-78
2022/10/25 06:24:38;;;;;;;19.88;9.50;;;12.70;99.90;;;;;;5056373;28;20470;-79
2022/10/25 06:27:04;;;;;;;15.52;9.48;;;12.80;99.90;;;;;;5055917;28;20565;-79
2022/10/25 06:29:29;;;;;;;15.70;9.25;;;12.70;99.90;;;;;;5056261;28;20079;-79
2022/10/25 06:31:55;;;;;;;14.80;8.43;;;12.80;99.90;;;;;;5057684;28;20062;-79
2022/10/25 06:34:21;;;;;;;19.40;9.73;;;12.80;99.90;;;;;;5056063;28;20131;-79
2022/10/25 06:36:46;;;;;;;14.27;8.45;;;12.80;99.90;;;;;;5077930;28;20049;-78
2022/10/25 06:39:12;;;;;;;15.68;8.60;;;12.80;99.90;;;;;;5050895;28;20044;-78
2022/10/25 06:41:39;;;;;;;12.82;8.15;;;12.80;99.90;;;;;;5055709;28;20045;-79
2022/10/25 06:44:05;;;;;;;12.40;7.70;;;12.80;99.90;;;;;;5055386;28;20151;-79
2022/10/25 06:46:33;;;;;;;12.02;8.10;;;12.70;99.90;;;;;;5051160;28;20063;-80
2022/10/25 06:49:00;;;;;;;15.05;8.40;;;12.70;99.90;;;;;;5055618;28;20121;-78
2022/10/25 06:51:27;;;;;;;11.82;6.97;;;12.80;99.90;;;;;;5054538;28;20120;-79
2022/10/25 06:53:58;;;;;;;11.55;7.15;;;12.70;99.90;;;;;;5052794;28;20821;-79
2022/10/25 06:56:25;;;;;;;17.15;7.53;;;12.80;99.90;;;;;;5052933;28;20092;-80
2022/10/25 06:58:50;;;;;;;12.65;7.72;;;12.80;99.90;;;;;;5050758;28;20047;-79
2022/10/25 07:01:17;;;;;;;17.20;8.10;;;12.80;99.90;;;;;;5053906;28;20045;-79
2022/10/25 07:03:44;;;;;;;12.63;6.72;;;12.80;99.90;;;;;;5056772;28;20135;-79
2022/10/25 07:06:15;;;;;;;12.65;7.47;;;12.90;99.90;;;;;;5056427;28;20060;-79
2022/10/25 07:08:43;;;;;;;12.55;7.38;;;12.90;99.90;;;;;;5054910;28;20044;-77
2022/10/25 07:11:14;;;;;;;14.15;7.18;;;12.90;99.90;;;;;;5053995;28;20536;-80
2022/10/25 07:13:40;;;;;;;12.10;6.97;;;13.00;99.90;;;;;;5053984;28;20484;-80
2022/10/25 07:16:08;;;;;;;15.63;7.85;;;13.00;99.90;;;;;;5056795;28;20052;-80
2022/10/25 07:18:35;;;;;;;12.77;7.20;;;13.00;99.90;;;;;;5055708;28;20122;-81
2022/10/25 07:21:04;;;;;;;13.63;7.50;;;13.00;99.90;;;;;;5056277;28;20149;-81
2022/10/25 07:23:30;;;;;;;12.55;7.05;;;13.10;99.90;;;;;;5054795;28;20044;-79
2022/10/25 07:25:56;;;;;;;13.85;7.55;;;13.20;99.90;;;;;;5055441;28;20391;-80
2022/10/25 07:28:23;;;;;;;13.88;6.95;;;13.20;99.90;;;;;;5057315;28;20048;-80
2022/10/25 07:30:48;;;;;;;15.38;8.30;;;13.30;99.90;;;;;;5054243;28;20045;-80
2022/10/25 07:33:16;;;;;;;14.50;6.18;;;13.40;99.90;;;;;;5057422;28;20049;-81
2022/10/25 07:35:46;;;;;;;11.82;6.95;;;13.50;99.90;;;;;;5059463;28;20049;-81
2022/10/25 07:38:12;;;;;;;12.15;6.88;;;13.50;99.90;;;;;;5061674;28;20113;-81
2022/10/25 07:40:38;;;;;;;15.43;6.90;;;13.60;99.90;;;;;;5059741;28;20093;-82
2022/10/25 07:43:04;;;;;;;20.27;7.43;;;13.60;99.90;;;;;;5056497;28;20165;-78
2022/10/25 07:45:30;;;;;;;17.15;7.72;;;13.70;99.90;;;;;;5063306;28;20537;-78
2022/10/25 07:47:55;;;;;;;14.18;7.07;;;13.80;99.90;;;;;;5061146;28;20059;-78
2022/10/25 07:50:21;;;;;;;15.23;8.20;;;13.80;99.90;;;;;;5061447;28;20048;-78
2022/10/25 07:52:47;;;;;;;13.82;7.13;;;13.80;99.90;;;;;;5061903;28;20158;-78
2022/10/25 07:55:13;;;;;;;15.07;8.98;;;13.80;99.90;;;;;;5061460;28;20088;-78
2022/10/25 07:57:39;;;;;;;14.85;6.97;;;13.80;99.90;;;;;;5060478;28;20036;-78
2022/10/25 08:00:06;;;;;;;11.95;7.03;;;13.80;99.90;;;;;;5056137;28;20060;-78
2022/10/25 08:02:32;;;;;;;13.43;7.25;;;13.80;99.90;;;;;;5060989;28;20312;-78
2022/10/25 08:04:57;;;;;;;12.73;6.90;;;13.90;99.90;;;;;;5061845;28;20747;-78
2022/10/25 08:07:23;;;;;;;13.32;6.72;;;14.00;99.90;;;;;;5060980;28;20685;-77
2022/10/25 08:09:49;;;;;;;12.32;6.78;;;14.00;99.90;;;;;;5062724;28;20044;-78
2022/10/25 08:12:14;;;;;;;11.82;6.80;;;14.00;99.90;;;;;;5060688;28;20182;-78
2022/10/25 08:14:40;;;;;;;14.98;7.68;;;14.10;99.90;;;;;;5060059;28;20060;-78
2022/10/25 08:17:06;;;;;;;16.58;8.13;;;14.10;99.90;;;;;;5060102;28;20056;-78
2022/10/25 08:19:31;;;;;;;14.80;7.15;;;14.20;99.90;;;;;;5062651;28;20847;-78
2022/10/25 08:21:57;;;;;;;15.32;6.75;;;14.20;99.90;;;;;;5060550;28;20072;-78
2022/10/25 08:24:23;;;;;;;13.55;6.93;;;14.10;99.90;;;;;;5061177;28;20048;-78
2022/10/25 08:26:48;;;;;;;13.15;6.30;;;14.40;99.90;;;;;;5061033;28;20476;-78
2022/10/25 08:29:14;;;;;;;11.77;6.97;;;14.30;99.90;;;;;;5062825;28;20043;-80
2022/10/25 08:31:40;;;;;;;13.02;6.57;;;14.40;99.90;;;;;;5058440;28;20143;-79
2022/10/25 08:34:05;;;;;;;22.23;8.07;;;14.50;99.90;;;;;;5059598;28;20053;-79
2022/10/25 08:36:31;;;;;;;15.18;7.07;;;14.50;99.90;;;;;;5060508;28;20048;-78
2022/10/25 08:38:57;;;;;;;11.27;6.65;;;14.60;99.90;;;;;;5060709;28;20184;-81
2022/10/25 08:41:49;;;;;;;10.88;6.60;;;14.60;99.90;;;;;;5057527;28;20051;-78
2022/10/25 08:44:18;;;;;;;9.80;6.97;;;14.60;99.90;;;;;;5061189;28;20055;-79
2022/10/25 08:47:05;;;;;;;16.95;7.05;;;14.60;99.90;;;;;;5058209;28;20056;-79
2022/10/25 08:49:54;;;;;;;17.88;8.93;;;14.50;99.90;;;;;;5059351;28;20406;-79
2022/10/25 08:52:40;;;;;;;14.82;6.65;;;14.50;99.90;;;;;;5039653;28;20059;-79
2022/10/25 08:55:18;;;;;;;12.57;6.43;;;14.60;99.90;;;;;;5059406;28;20830;-79
2022/10/25 08:57:45;;;;;;;20.48;7.03;;;14.70;99.90;;;;;;5059318;28;20057;-79
2022/10/25 09:00:22;;;;;;;17.02;8.18;;;14.70;99.90;;;;;;5057349;28;20093;-78
2022/10/25 09:02:56;;;;;;;14.55;6.80;;;14.70;99.90;;;;;;5062350;28;20351;-79
2022/10/25 09:05:39;;;;;;;12.82;7.57;;;14.80;99.90;;;;;;5061470;28;20045;-78
2022/10/25 09:08:38;;;;;;;12.82;6.57;;;14.80;99.90;;;;;;5060006;28;20090;-78
2022/10/25 09:11:32;;;;;;;11.85;7.05;;;14.90;99.90;;;;;;5051906;28;20488;-75
2022/10/25 09:14:11;;;;;;;10.95;7.15;;;15.10;99.90;;;;;;5053582;28;20850;-79
2022/10/25 09:17:00;;;;;;;11.02;7.22;;;15.30;99.90;;;;;;5058991;28;20051;-78
2022/10/25 09:19:33;;;;;;;13.30;6.57;;;15.40;99.90;;;;;;5059930;28;20099;-77
2022/10/25 09:22:10;;;;;;;;;;;15.30;99.90;;;;;;5058590;28;20708;-77
2022/10/25 09:24:46;;;;;;;18.65;7.07;;;15.30;99.90;;;;;;5060578;28;19931;-77
2022/10/25 09:27:23;;;;;;;16.40;7.63;;;15.30;99.90;;;;;;5060665;28;20044;-80
2022/10/25 09:30:00;;;;;;;14.15;6.22;;;15.00;99.90;;;;;;5060492;28;20046;-79
2022/10/25 09:32:59;;;;;;;10.88;6.60;;;15.30;99.90;;;;;;5059165;28;20076;-80
2022/10/25 09:35:41;;;;;;;7.13;5.43;;;15.40;99.90;;;;;;5056082;28;20048;-84
2022/10/25 09:38:25;;;;;;;10.63;4.78;;;15.50;99.90;;;;;;5060134;28;20052;-78
2022/10/25 09:41:02;;;;;;;11.73;5.57;;;15.50;99.90;;;;;;5055091;28;20128;-78
2022/10/25 09:43:56;;;;;;;14.00;5.50;;;15.60;99.90;;;;;;5060232;28;20083;-79
2022/10/25 09:46:31;;;;;;;9.85;4.47;;;15.60;99.90;;;;;;5058422;28;20136;-79
2022/10/25 09:49:39;;;;;;;9.32;4.03;;;15.70;99.90;;;;;;5065490;28;20052;-80
2022/10/25 09:52:35;;;;;;;7.90;4.63;;;15.70;99.90;;;;;;5059284;28;20047;-80
2022/10/25 09:55:12;;;;;;;9.02;4.55;;;15.70;99.90;;;;;;5059127;28;20149;-81
2022/10/25 09:57:38;;;;;;;10.55;4.32;;;15.80;99.90;;;;;;5057966;28;20114;-81
2022/10/25 10:00:04;;;;;;;10.45;5.32;;;15.90;99.90;;;;;;5052100;28;20052;-82
2022/10/25 10:02:30;;;;;;;12.23;4.82;;;15.90;99.90;;;;;;5057574;28;20048;-82
2022/10/25 10:04:55;;;;;;;10.40;5.28;;;15.90;99.90;;;;;;5060067;28;20075;-81
2022/10/25 10:07:23;;;;;;;6.93;4.57;;;16.00;99.90;;;;;;5059456;28;20093;-80
2022/10/25 10:09:51;;;;;;;9.68;4.60;;;16.10;99.90;;;;;;5058014;28;20534;-79
2022/10/25 10:12:38;;;;;;;9.43;4.30;;;16.10;99.90;;;;;;5056332;28;20115;-80
2022/10/25 10:15:26;;;;;;;10.10;4.68;;;16.10;99.90;;;;;;5048559;28;20107;-80
2022/10/25 10:18:25;;;;;;;8.50;4.45;;;16.00;99.90;;;;;;5055057;28;20150;-78
2022/10/25 10:21:14;;;;;;;8.30;4.05;;;15.90;99.90;;;;;;5054940;28;20052;-80
2022/10/25 10:23:58;;;;;;;9.32;3.97;;;15.80;99.90;;;;;;5056134;28;20050;-79
2022/10/25 10:26:27;;;;;;;10.80;4.22;;;15.90;99.90;;;;;;5058233;28;20144;-79
2022/10/25 10:29:08;;;;;;;6.97;3.92;;;16.10;99.90;;;;;;5057623;28;20049;-82
2022/10/25 10:31:41;;;;;;;12.65;3.85;;;16.10;99.90;;;;;;5051939;28;20118;-82
2022/10/25 10:34:27;;;;;;;5.55;3.60;;;16.30;99.90;;;;;;5056726;28;20055;-80
2022/10/25 10:37:06;;;;;;;9.65;3.90;;;16.40;99.90;;;;;;5056825;28;20052;-82
2022/10/25 10:39:32;;;;;;;4.72;3.75;;;16.50;99.90;;;;;;5046681;28;20063;-80
2022/10/25 10:42:15;;;;;;;14.90;5.38;;;16.40;99.90;;;;;;5055745;28;20044;-81
2022/10/25 10:45:11;;;;;;;10.25;4.18;;;16.40;99.90;;;;;;5052259;28;20052;-83
2022/10/25 10:47:49;;;;;;;6.85;3.75;;;16.20;99.90;;;;;;5055987;28;20067;-80
2022/10/25 10:50:24;;;;;;;7.57;3.75;;;16.30;99.90;;;;;;5056924;28;20041;-79
2022/10/25 10:52:52;;;;;;;8.32;3.15;;;16.40;99.90;;;;;;5058057;28;20105;-81
2022/10/25 10:55:32;;;;;;;5.68;3.45;;;16.40;99.90;;;;;;5057781;28;20205;-80
2022/10/25 10:58:04;;;;;;;9.35;3.60;;;16.40;99.90;;;;;;5055575;28;20045;-80
2022/10/25 11:00:32;;;;;;;6.45;3.80;;;16.40;99.90;;;;;;5056885;28;20051;-81
2022/10/25 11:02:58;;;;;;;8.93;3.15;;;16.40;99.90;;;;;;5058237;28;20233;-81
2022/10/25 11:05:34;;;;;;;9.85;3.25;;;16.50;99.90;;;;;;5058031;28;20549;-82
2022/10/25 11:08:01;;;;;;;6.47;3.88;;;16.60;99.90;;;;;;5058000;28;20048;-82
2022/10/25 11:10:30;;;;;;;8.25;3.78;;;16.50;99.90;;;;;;5059486;28;20055;-83
2022/10/25 11:13:12;;;;;;;7.07;3.40;;;16.60;99.90;;;;;;5056681;28;20044;-81
2022/10/25 11:15:51;;;;;;;12.63;4.20;;;16.50;99.90;;;;;;5058029;28;20055;-81
2022/10/25 11:18:26;;;;;;;15.65;3.53;;;16.70;99.90;;;;;;5057631;28;20156;-80
2022/10/25 11:21:16;;;;;;;8.55;3.28;;;16.80;99.90;;;;;;5059163;28;20072;-84
2022/10/25 11:24:03;;;;;;;7.38;3.10;;;16.70;99.90;;;;;;5054535;28;20055;-83
2022/10/25 11:26:50;;;;;;;5.75;2.72;;;16.70;99.90;;;;;;5057972;28;20182;-81
2022/10/25 11:29:22;;;;;;;6.70;3.30;;;16.60;99.90;;;;;;5057524;28;20037;-83
2022/10/25 11:31:59;;;;;;;6.10;3.15;;;16.60;99.90;;;;;;5049180;28;20284;-83
2022/10/25 11:34:57;;;;;;;8.27;3.97;;;16.50;99.90;;;;;;5056295;28;20049;-83
2022/10/25 11:37:33;;;;;;;7.55;3.22;;;16.50;99.90;;;;;;5056082;28;20178;-82
2022/10/25 11:40:11;;;;;;;7.22;2.80;;;16.50;99.90;;;;;;5057436;28;20029;-82
2022/10/25 11:43:18;;;;;;;5.10;2.92;;;16.60;99.90;;;;;;5057552;28;20130;-80
2022/10/25 11:45:47;;;;;;;5.13;2.97;;;16.70;99.90;;;;;;5057350;28;20052;-79
2022/10/25 11:48:24;;;;;;;6.53;3.13;;;16.70;99.90;;;;;;5057753;28;20052;-83
2022/10/25 11:51:20;;;;;;;10.43;4.03;;;16.90;99.90;;;;;;5057567;28;20139;-82
2022/10/25 11:54:23;;;;;;;3.28;2.97;;;17.00;99.90;;;;;;5056631;28;20090;-81
2022/10/25 11:57:20;;;;;;;9.55;3.92;;;17.20;99.90;;;;;;5049785;28;20056;-83
2022/10/25 12:00:07;;;;;;;4.68;2.90;;;17.50;99.90;;;;;;5012796;28;20037;-83
2022/10/25 12:03:06;;;;;;;11.93;3.25;;;17.60;99.90;;;;;;5057492;28;20455;-80
2022/10/25 12:06:09;;;;;;;8.85;3.20;;;17.70;99.90;;;;;;5057293;28;20048;-77
2022/10/25 12:09:02;;;;;;;3.90;2.30;;;17.80;99.90;;;;;;5056234;28;20930;-77
2022/10/25 12:11:36;;;;;;;5.90;2.30;;;17.80;99.90;;;;;;5057299;28;20583;-76
2022/10/25 12:14:10;;;;;;;7.40;2.70;;;17.60;99.90;;;;;;5051479;28;20064;-82
2022/10/25 12:16:37;;;;;;;7.88;3.00;;;17.40;99.90;;;;;;5055826;28;20061;-79
2022/10/25 12:19:24;;;;;;;10.80;3.90;;;17.20;99.90;;;;;;5060609;28;20048;-82
2022/10/25 12:22:00;;;;;;;7.40;2.10;;;17.10;99.90;;;;;;5056499;28;20110;-81
2022/10/25 12:24:40;;;;;;;4.93;2.67;;;17.00;99.90;;;;;;5060835;28;20121;-81
2022/10/25 12:27:08;;;;;;;6.13;2.65;;;17.20;99.90;;;;;;5059371;28;20129;-83
2022/10/25 12:29:44;;;;;;;9.10;2.80;;;17.30;99.90;;;;;;5061011;28;20456;-77
2022/10/25 12:32:19;;;;;;;5.95;2.47;;;17.30;99.90;;;;;;5060482;28;20930;-80
2022/10/25 12:34:51;;;;;;;2.83;2.20;;;17.20;99.90;;;;;;5048699;28;20056;-79
2022/10/25 12:37:23;;;;;;;4.53;2.00;;;17.00;99.90;;;;;;5056454;28;20159;-81
2022/10/25 12:39:50;;;;;;;5.65;2.00;;;16.90;99.90;;;;;;5058160;28;20925;-81
2022/10/25 12:42:21;;;;;;;6.20;2.33;;;16.80;99.90;;;;;;5057956;28;20197;-80
2022/10/25 12:44:58;;;;;;;3.70;3.40;;;16.70;99.90;;;;;;5055781;28;20044;-84
2022/10/25 12:47:36;;;;;;;7.28;2.60;;;16.60;99.90;;;;;;5057012;28;20137;-79
2022/10/25 12:50:36;;;;;;;5.13;2.63;;;16.60;99.90;;;;;;5056777;28;20095;-84
2022/10/25 12:53:30;;;;;;;5.97;3.17;;;16.60;99.90;;;;;;5055981;28;20067;-75
2022/10/25 12:56:34;;;;;;;4.65;2.50;;;16.90;99.90;;;;;;5058230;28;20466;-79
2022/10/25 12:59:08;;;;;;;4.97;3.30;;;17.30;99.90;;;;;;5053403;28;20047;-77
2022/10/25 13:02:09;;;;;;;8.23;2.80;;;17.30;99.90;;;;;;5058724;28;20521;-79
2022/10/25 13:04:59;;;;;;;7.82;3.65;;;17.20;99.90;;;;;;5021064;28;20117;-79